createdAt,value
2023-02-18T00:01:53.691Z,1.53
2023-02-18T00:04:21.764Z,1.73
2023-02-18T00:06:51.207Z,1.30
2023-02-18T00:09:19.174Z,6.97
2023-02-18T00:11:47.192Z,2.33
2023-02-18T00:14:16.931Z,1.33
2023-02-18T00:16:45.857Z,0.93
2023-02-18T00:19:17.492Z,1.50
2023-02-18T00:21:46.102Z,1.00
2023-02-18T00:24:16.694Z,1.00
2023-02-18T00:26:45.007Z,1.70
2023-02-18T00:29:13.170Z,1.57
2023-02-18T00:31:42.446Z,1.43
2023-02-18T00:34:12.176Z,1.43
2023-02-18T00:36:40.554Z,1.03
2023-02-18T00:39:11.182Z,1.27
2023-02-18T00:41:41.017Z,1.47
2023-02-18T00:44:09.279Z,1.77
2023-02-18T00:46:37.657Z,1.77
2023-02-18T00:49:06.458Z,1.03
2023-02-18T00:51:34.938Z,1.87
2023-02-18T00:54:02.902Z,1.50
2023-02-18T00:56:30.952Z,0.80
2023-02-18T00:59:00.323Z,1.30
2023-02-18T01:01:29.055Z,1.30
2023-02-18T01:03:57.264Z,1.30
2023-02-18T01:06:25.259Z,1.40
2023-02-18T01:08:53.249Z,1.13
2023-02-18T01:11:21.475Z,1.37
2023-02-18T01:13:49.542Z,1.47
2023-02-18T01:16:19.114Z,1.40
2023-02-18T01:18:47.128Z,1.17
2023-02-18T01:21:15.217Z,1.40
2023-02-18T01:23:43.660Z,1.60
2023-02-18T01:26:12.378Z,1.53
2023-02-18T01:28:41.552Z,1.93
2023-02-18T01:31:12.616Z,1.13
2023-02-18T01:33:42.674Z,1.07
2023-02-18T01:36:11.986Z,1.50
2023-02-18T01:38:40.428Z,1.30
2023-02-18T01:41:08.537Z,1.60
2023-02-18T01:43:37.242Z,2.07
2023-02-18T01:46:09.600Z,1.07
2023-02-18T01:48:42.799Z,1.63
2023-02-18T01:51:14.586Z,1.20
2023-02-18T01:53:48.036Z,1.57
2023-02-18T01:56:21.651Z,1.53
2023-02-18T01:58:50.681Z,1.37
2023-02-18T02:01:18.839Z,1.20
2023-02-18T02:03:48.146Z,1.23
2023-02-18T02:06:18.309Z,0.43
2023-02-18T02:08:48.284Z,1.53
2023-02-18T02:11:24.876Z,1.07
2023-02-18T02:14:11.965Z,1.20
2023-02-18T02:16:48.827Z,1.63
2023-02-18T02:19:42.761Z,1.80
2023-02-18T02:22:28.191Z,2.07
2023-02-18T02:25:17.821Z,1.33
2023-02-18T02:28:08.680Z,1.37
2023-02-18T02:30:54.825Z,1.10
2023-02-18T02:33:54.688Z,2.50
2023-02-18T02:36:30.917Z,1.00
2023-02-18T02:39:09.137Z,1.73
2023-02-18T02:41:47.818Z,2.77
2023-02-18T02:44:22.337Z,2.30
2023-02-18T02:46:53.997Z,1.37
2023-02-18T02:49:33.974Z,2.43
2023-02-18T02:52:08.988Z,6.43
2023-02-18T02:54:37.147Z,10.87
2023-02-18T02:57:10.616Z,24.33
2023-02-18T02:59:42.905Z,13.27
2023-02-18T03:02:24.873Z,25.47
2023-02-18T03:05:02.962Z,25.27
2023-02-18T03:08:04.087Z,35.23
2023-02-18T03:10:59.531Z,24.20
2023-02-18T03:13:40.168Z,23.20
2023-02-18T03:16:17.675Z,22.50
2023-02-18T03:18:49.895Z,20.90
2023-02-18T03:21:24.871Z,0.77
2023-02-18T03:23:58.421Z,27.03
2023-02-18T03:26:28.667Z,26.67
2023-02-18T03:29:01.040Z,28.63
2023-02-18T03:31:31.627Z,20.60
2023-02-18T03:34:04.713Z,12.20
2023-02-18T03:36:34.771Z,10.00
2023-02-18T03:39:07.981Z,14.53
2023-02-18T03:41:36.737Z,11.90
2023-02-18T03:44:10.727Z,1.43
2023-02-18T03:46:40.996Z,13.27
2023-02-18T03:49:08.935Z,39.23
2023-02-18T03:51:36.887Z,38.33
2023-02-18T03:54:06.644Z,49.50
2023-02-18T03:56:34.876Z,35.17
2023-02-18T03:59:03.382Z,43.87
2023-02-18T04:01:31.567Z,51.87
2023-02-18T04:03:59.665Z,53.37
2023-02-18T04:06:27.762Z,55.17
2023-02-18T04:08:55.946Z,54.30
2023-02-18T04:11:25.359Z,55.47
2023-02-18T04:13:53.378Z,58.63
2023-02-18T04:16:21.394Z,58.00
2023-02-18T04:18:49.341Z,56.90
2023-02-18T04:21:17.305Z,60.07
2023-02-18T04:23:45.249Z,61.40
2023-02-18T04:26:13.233Z,61.00
2023-02-18T04:28:42.540Z,57.90
2023-02-18T04:31:11.709Z,57.10
2023-02-18T04:33:39.735Z,58.40
2023-02-18T04:36:09.120Z,56.47
2023-02-18T04:38:37.651Z,57.33
2023-02-18T04:41:06.048Z,60.47
2023-02-18T04:43:34.046Z,57.83
2023-02-18T04:46:03.400Z,59.93
2023-02-18T04:48:31.379Z,55.10
2023-02-18T04:50:59.393Z,57.70
2023-02-18T04:53:27.457Z,57.37
2023-02-18T04:55:55.829Z,54.33
2023-02-18T04:58:23.840Z,55.17
2023-02-18T05:00:53.291Z,58.03
2023-02-18T05:03:23.387Z,58.17
2023-02-18T05:05:51.357Z,57.93
2023-02-18T05:08:19.371Z,54.43
2023-02-18T05:10:47.334Z,55.00
2023-02-18T05:13:15.333Z,56.23
2023-02-18T05:15:43.347Z,45.97
2023-02-18T05:18:11.388Z,44.90
2023-02-18T05:20:40.744Z,56.50
2023-02-18T05:23:08.702Z,54.40
2023-02-18T05:25:36.693Z,46.53
2023-02-18T05:28:04.810Z,48.80
2023-02-18T05:30:32.816Z,55.17
2023-02-18T05:33:00.838Z,53.87
2023-02-18T05:35:28.834Z,56.17
2023-02-18T05:37:58.176Z,57.97
2023-02-18T05:40:26.128Z,60.30
2023-02-18T05:42:54.100Z,58.40
2023-02-18T05:45:22.131Z,55.37
2023-02-18T05:47:50.156Z,59.00
2023-02-18T05:50:18.508Z,61.50
2023-02-18T05:52:46.478Z,59.13
2023-02-18T05:55:15.883Z,60.80
2023-02-18T05:57:43.832Z,58.80
2023-02-18T06:00:13.030Z,58.43
2023-02-18T06:02:41.046Z,60.63
2023-02-18T06:05:09.446Z,62.20
2023-02-18T06:07:38.090Z,55.03
2023-02-18T06:10:07.351Z,62.73
2023-02-18T06:12:36.752Z,60.60
2023-02-18T06:15:05.084Z,63.00
2023-02-18T06:17:33.085Z,64.87
2023-02-18T06:20:01.076Z,63.10
2023-02-18T06:22:29.134Z,63.07
2023-02-18T06:24:57.107Z,62.50
2023-02-18T06:27:25.069Z,64.77
2023-02-18T06:29:54.410Z,63.93
2023-02-18T06:32:22.464Z,67.33
2023-02-18T06:34:50.505Z,60.87
2023-02-18T06:37:18.553Z,62.80
2023-02-18T06:39:46.530Z,64.33
2023-02-18T06:42:14.605Z,59.40
2023-02-18T06:44:42.747Z,66.37
2023-02-18T06:47:12.071Z,65.80
2023-02-18T06:49:41.123Z,66.67
2023-02-18T06:52:09.105Z,63.33
2023-02-18T06:54:37.076Z,64.37
2023-02-18T06:57:05.132Z,64.33
2023-02-18T06:59:33.143Z,65.93
2023-02-18T07:02:01.116Z,61.50
2023-02-18T07:04:33.191Z,65.73
2023-02-18T07:07:01.163Z,64.17
2023-02-18T07:09:29.097Z,63.60
2023-02-18T07:11:57.074Z,67.10
2023-02-18T07:14:26.456Z,60.70
2023-02-18T07:16:54.396Z,59.57
2023-02-18T07:19:22.412Z,61.97
2023-02-18T07:21:51.752Z,61.03
2023-02-18T07:24:19.696Z,57.90
2023-02-18T07:26:47.648Z,59.80
2023-02-18T07:29:15.628Z,58.87
2023-02-18T07:31:43.661Z,51.23
2023-02-18T07:34:11.679Z,62.13
2023-02-18T07:36:39.668Z,61.07
2023-02-18T07:39:09.115Z,63.07
2023-02-18T07:41:37.112Z,62.80
2023-02-18T07:44:05.643Z,65.30
2023-02-18T07:46:33.596Z,73.03
2023-02-18T07:49:01.563Z,64.83
2023-02-18T07:51:29.529Z,64.93
2023-02-18T07:53:57.480Z,65.50
2023-02-18T07:56:26.876Z,66.70
2023-02-18T07:58:54.830Z,67.37
2023-02-18T08:01:22.890Z,66.47
2023-02-18T08:03:50.858Z,66.37
2023-02-18T08:06:25.345Z,70.07
2023-02-18T08:08:53.284Z,50.90
2023-02-18T08:11:21.332Z,61.47
2023-02-18T08:13:50.945Z,59.47
2023-02-18T08:16:21.005Z,64.53
2023-02-18T08:18:49.736Z,57.37
2023-02-18T08:21:18.696Z,43.47
2023-02-18T08:23:47.022Z,48.00
2023-02-18T08:26:15.514Z,56.27
2023-02-18T08:28:44.111Z,54.33
2023-02-18T08:31:19.620Z,21.63
2023-02-18T08:33:47.861Z,43.53
2023-02-18T08:36:16.197Z,52.30
2023-02-18T08:38:44.213Z,50.90
2023-02-18T08:41:14.499Z,50.57
2023-02-18T08:43:42.892Z,39.00
2023-02-18T08:46:15.730Z,31.23
2023-02-18T08:48:46.264Z,34.40
2023-02-18T08:51:15.701Z,35.23
2023-02-18T08:53:44.328Z,30.27
2023-02-18T08:56:13.256Z,46.57
2023-02-18T08:58:41.692Z,52.80
2023-02-18T09:01:11.908Z,42.80
2023-02-18T09:03:40.795Z,47.40
2023-02-18T09:06:10.651Z,48.10
2023-02-18T09:08:38.638Z,47.43
2023-02-18T09:11:08.157Z,57.50
2023-02-18T09:13:36.689Z,46.10
2023-02-18T09:16:06.706Z,56.13
2023-02-18T09:18:36.508Z,50.13
2023-02-18T09:21:07.862Z,48.10
2023-02-18T09:23:37.960Z,44.87
2023-02-18T09:26:07.171Z,43.87
2023-02-18T09:28:35.190Z,51.87
2023-02-18T09:31:06.950Z,28.17
2023-02-18T09:33:37.269Z,20.33
2023-02-18T09:36:06.189Z,19.17
2023-02-18T09:38:34.460Z,17.85
2023-02-18T09:41:08.339Z,20.83
2023-02-18T09:43:41.601Z,19.20
2023-02-18T09:46:20.798Z,28.20
2023-02-18T09:48:49.871Z,30.37
2023-02-18T09:51:18.966Z,24.73
2023-02-18T09:53:47.773Z,26.73
2023-02-18T09:56:23.625Z,27.07
2023-02-18T09:58:52.909Z,26.50
2023-02-18T10:01:28.432Z,26.23
2023-02-18T10:03:59.227Z,31.10
2023-02-18T10:06:31.811Z,24.70
2023-02-18T10:09:03.796Z,29.50
2023-02-18T10:11:38.908Z,54.87
2023-02-18T10:14:11.865Z,60.73
2023-02-18T10:16:39.977Z,27.53
2023-02-18T10:19:21.034Z,39.10
2023-02-18T10:21:49.727Z,35.80
2023-02-18T10:24:26.815Z,31.43
2023-02-18T10:26:56.593Z,56.65
2023-02-18T10:29:25.190Z,52.50
2023-02-18T10:31:57.324Z,46.10
2023-02-18T10:34:39.309Z,27.27
2023-02-18T10:37:14.552Z,27.67
2023-02-18T10:39:53.928Z,27.93
2023-02-18T10:42:35.108Z,25.97
2023-02-18T10:45:15.992Z,32.17
2023-02-18T10:47:53.767Z,39.60
2023-02-18T10:50:29.430Z,32.27
2023-02-18T10:53:09.463Z,24.00
2023-02-18T10:55:39.322Z,32.30
2023-02-18T10:58:27.092Z,23.60
2023-02-18T11:00:55.415Z,28.37
2023-02-18T11:03:25.148Z,28.17
2023-02-18T11:05:55.853Z,29.70
2023-02-18T11:08:32.211Z,35.90
2023-02-18T11:11:10.236Z,36.60
2023-02-18T11:13:42.617Z,46.30
2023-02-18T11:16:14.449Z,33.60
2023-02-18T11:18:46.511Z,50.57
2023-02-18T11:21:26.352Z,37.80
2023-02-18T11:23:56.853Z,23.27
2023-02-18T11:26:29.539Z,34.30
2023-02-18T11:29:04.283Z,36.87
2023-02-18T11:31:41.895Z,59.67
2023-02-18T11:34:17.552Z,43.83
2023-02-18T11:36:46.033Z,58.70
2023-02-18T11:39:22.590Z,49.80
2023-02-18T11:41:56.958Z,47.63
2023-02-18T11:44:30.456Z,52.53
2023-02-18T11:47:00.883Z,51.57
2023-02-18T11:49:29.875Z,1.33
2023-02-18T11:52:05.651Z,45.97
2023-02-18T11:54:36.001Z,1.63
2023-02-18T11:57:06.676Z,5.73
2023-02-18T11:59:38.696Z,43.03
2023-02-18T12:02:28.998Z,5.87
2023-02-18T12:05:02.512Z,3.63
2023-02-18T12:07:35.555Z,1.10
2023-02-18T12:10:12.081Z,1.53
2023-02-18T12:12:47.315Z,1.53
2023-02-18T12:15:21.242Z,0.87
2023-02-18T12:18:19.723Z,1.23
2023-02-18T12:21:12.632Z,1.20
2023-02-18T12:23:52.920Z,1.20
2023-02-18T12:26:28.053Z,1.27
2023-02-18T12:29:10.202Z,1.50
2023-02-18T12:31:52.695Z,1.57
2023-02-18T12:34:33.600Z,11.63
2023-02-18T12:37:12.895Z,18.07
2023-02-18T12:40:02.467Z,3.03
2023-02-18T12:42:47.276Z,10.73
2023-02-18T12:45:31.380Z,9.63
2023-02-18T12:48:21.307Z,16.03
2023-02-18T12:51:11.198Z,4.37
2023-02-18T12:53:56.948Z,1.57
2023-02-18T12:57:03.311Z,1.30
2023-02-18T12:59:56.524Z,1.27
2023-02-18T13:02:42.669Z,1.43
2023-02-18T13:05:18.974Z,1.93
2023-02-18T13:07:56.189Z,2.07
2023-02-18T13:10:54.360Z,2.57
2023-02-18T13:13:25.734Z,7.50
2023-02-18T13:15:58.009Z,25.70
2023-02-18T13:18:31.414Z,29.35
2023-02-18T13:21:05.761Z,3.20
2023-02-18T13:23:38.799Z,13.20
2023-02-18T13:26:11.051Z,8.57
2023-02-18T13:28:45.684Z,30.13
2023-02-18T13:31:28.846Z,7.47
2023-02-18T13:34:03.513Z,31.47
2023-02-18T13:36:48.310Z,6.30
2023-02-18T13:39:20.498Z,22.27
2023-02-18T13:41:51.601Z,29.75
2023-02-18T13:44:57.281Z,12.20
2023-02-18T13:47:39.585Z,31.40
2023-02-18T13:50:41.610Z,38.75
2023-02-18T13:53:23.498Z,46.80
2023-02-18T13:56:03.757Z,27.37
2023-02-18T13:58:37.348Z,31.27
2023-02-18T14:01:12.788Z,40.37
2023-02-18T14:04:01.174Z,41.87
2023-02-18T14:06:32.411Z,49.10
2023-02-18T14:09:21.146Z,40.57
2023-02-18T14:11:50.408Z,63.37
2023-02-18T14:14:45.763Z,80.70
2023-02-18T14:17:32.562Z,74.37
2023-02-18T14:20:34.010Z,97.23
2023-02-18T14:23:02.057Z,87.23
2023-02-18T14:25:41.781Z,87.00
2023-02-18T14:28:39.889Z,88.78
2023-02-18T14:31:29.813Z,101.03
2023-02-18T14:34:30.101Z,105.70
2023-02-18T14:37:14.562Z,92.20
2023-02-18T14:39:55.263Z,90.47
2023-02-18T14:42:35.891Z,91.00
2023-02-18T14:45:14.403Z,92.00
2023-02-18T14:47:57.136Z,95.67
2023-02-18T14:50:26.136Z,97.10
2023-02-18T14:53:00.574Z,99.87
2023-02-18T14:55:33.214Z,109.00
2023-02-18T14:58:04.505Z,98.50
2023-02-18T15:00:36.339Z,107.03
2023-02-18T15:03:04.363Z,105.03
2023-02-18T15:05:33.672Z,107.87
2023-02-18T15:08:03.513Z,107.07
2023-02-18T15:10:42.980Z,106.27
2023-02-18T15:13:19.056Z,103.97
2023-02-18T15:15:49.974Z,95.67
2023-02-18T15:18:24.148Z,8.83
2023-02-18T15:20:52.657Z,75.77
2023-02-18T15:23:20.975Z,2.00
2023-02-18T15:25:52.307Z,13.43
2023-02-18T15:28:27.223Z,1.10
2023-02-18T15:30:57.514Z,5.03
2023-02-18T15:33:26.560Z,0.80
2023-02-18T15:36:02.075Z,0.63
2023-02-18T15:38:30.423Z,0.30
2023-02-18T15:40:59.362Z,0.53
2023-02-18T15:43:28.712Z,0.10
2023-02-18T15:45:58.840Z,0.40
2023-02-18T15:48:33.395Z,0.33
2023-02-18T15:51:16.258Z,0.70
2023-02-18T15:53:48.918Z,0.40
2023-02-18T15:56:22.576Z,0.30
2023-02-18T15:58:51.922Z,0.40
2023-02-18T16:01:28.974Z,0.50
2023-02-18T16:03:57.751Z,0.70
2023-02-18T16:06:28.144Z,0.50
2023-02-18T16:09:01.625Z,0.50
2023-02-18T16:11:33.568Z,0.60
2023-02-18T16:14:02.987Z,0.70
2023-02-18T16:16:33.538Z,0.70
2023-02-18T16:19:02.016Z,0.50
2023-02-18T16:21:38.745Z,0.43
2023-02-18T16:24:25.530Z,0.83
2023-02-18T16:26:55.421Z,0.67
2023-02-18T16:29:26.743Z,0.70
2023-02-18T16:31:54.750Z,0.80
2023-02-18T16:34:22.727Z,1.10
2023-02-18T16:37:08.169Z,0.97
2023-02-18T16:39:36.919Z,1.30
2023-02-18T16:42:06.697Z,0.87
2023-02-18T16:44:35.987Z,0.90
2023-02-18T16:47:04.295Z,0.50
2023-02-18T16:49:32.579Z,1.00
2023-02-18T16:52:02.510Z,1.10
2023-02-18T16:54:30.474Z,0.83
2023-02-18T16:56:58.464Z,0.90
2023-02-18T16:59:26.776Z,1.00
2023-02-18T17:01:56.827Z,0.93
2023-02-18T17:04:24.892Z,0.80
2023-02-18T17:06:53.134Z,0.97
2023-02-18T17:09:22.869Z,1.00
2023-02-18T17:11:53.092Z,0.90
2023-02-18T17:14:22.586Z,0.60
2023-02-18T17:16:53.896Z,1.03
2023-02-18T17:19:23.279Z,1.20
2023-02-18T17:21:51.260Z,1.00
2023-02-18T17:24:20.043Z,0.83
2023-02-18T17:26:48.024Z,0.90
2023-02-18T17:29:16.001Z,0.60
2023-02-18T17:31:47.199Z,1.20
2023-02-18T17:34:18.731Z,1.00
2023-02-18T17:36:48.073Z,0.60
2023-02-18T17:39:18.348Z,1.00
2023-02-18T17:41:46.394Z,0.90
2023-02-18T17:44:16.660Z,0.80
2023-02-18T17:46:44.828Z,0.90
2023-02-18T17:49:13.013Z,0.90
2023-02-18T17:51:41.117Z,0.80
2023-02-18T17:54:14.620Z,0.93
2023-02-18T17:56:43.381Z,1.00
2023-02-18T17:59:11.370Z,0.80
2023-02-18T18:01:39.685Z,0.73
2023-02-18T18:04:12.622Z,0.80
2023-02-18T18:06:40.657Z,1.03
2023-02-18T18:09:08.630Z,0.90
2023-02-18T18:11:38.929Z,1.20
2023-02-18T18:14:07.640Z,0.90
2023-02-18T18:16:35.643Z,1.20
2023-02-18T18:19:03.724Z,0.80
2023-02-18T18:21:34.472Z,1.00
2023-02-18T18:24:02.815Z,0.73
2023-02-18T18:26:30.994Z,1.20
2023-02-18T18:29:00.359Z,1.20
2023-02-18T18:31:28.389Z,1.37
2023-02-18T18:33:57.196Z,0.80
2023-02-18T18:36:25.168Z,1.00
2023-02-18T18:38:53.413Z,1.20
2023-02-18T18:41:23.476Z,1.03
2023-02-18T18:43:51.713Z,1.20
2023-02-18T18:46:21.212Z,1.10
2023-02-18T18:48:49.212Z,1.10
2023-02-18T18:51:19.620Z,1.10
2023-02-18T18:53:47.654Z,1.40
2023-02-18T18:56:15.698Z,1.10
2023-02-18T18:58:43.695Z,1.10
2023-02-18T19:01:16.189Z,0.93
2023-02-18T19:03:46.262Z,1.57
2023-02-18T19:06:15.938Z,3.57
2023-02-18T19:08:45.214Z,1.70
2023-02-18T19:11:13.895Z,2.77
2023-02-18T19:13:41.937Z,2.20
2023-02-18T19:16:17.771Z,2.03
2023-02-18T19:18:47.757Z,1.70
2023-02-18T19:21:16.670Z,1.60
2023-02-18T19:23:44.786Z,1.20
2023-02-18T19:26:15.738Z,1.70
2023-02-18T19:28:43.878Z,1.60
2023-02-18T19:31:12.340Z,1.63
2023-02-18T19:33:40.652Z,1.63
2023-02-18T19:36:11.764Z,1.57
2023-02-18T19:38:40.042Z,1.60
2023-02-18T19:41:09.485Z,1.03
2023-02-18T19:43:37.615Z,1.30
2023-02-18T19:46:10.175Z,1.30
2023-02-18T19:48:38.478Z,1.47
2023-02-18T19:51:07.574Z,0.90
2023-02-18T19:53:37.148Z,1.40
2023-02-18T19:56:07.443Z,1.40
2023-02-18T19:58:35.972Z,1.40
2023-02-18T20:01:04.224Z,1.33
2023-02-18T20:03:32.183Z,1.40
2023-02-18T20:06:00.179Z,1.13
2023-02-18T20:08:28.129Z,1.10
2023-02-18T20:11:00.686Z,1.00
2023-02-18T20:13:28.756Z,1.17
2023-02-18T20:15:56.842Z,1.00
2023-02-18T20:18:24.827Z,1.20
2023-02-18T20:20:52.937Z,1.10
2023-02-18T20:23:20.943Z,0.80
2023-02-18T20:25:49.001Z,1.17
2023-02-18T20:28:18.352Z,1.10
2023-02-18T20:30:46.373Z,1.00
2023-02-18T20:33:14.330Z,1.20
2023-02-18T20:35:42.400Z,1.30
2023-02-18T20:38:10.404Z,1.10
2023-02-18T20:40:38.402Z,1.13
2023-02-18T20:43:06.481Z,1.37
2023-02-18T20:45:35.933Z,1.40
2023-02-18T20:48:03.943Z,1.20
2023-02-18T20:50:31.899Z,1.50
2023-02-18T20:52:59.865Z,1.07
2023-02-18T20:55:27.899Z,1.20
2023-02-18T20:57:55.870Z,1.60
2023-02-18T21:00:23.845Z,1.43
2023-02-18T21:02:53.179Z,1.50
2023-02-18T21:05:21.155Z,1.20
2023-02-18T21:07:49.127Z,1.23
2023-02-18T21:10:17.189Z,1.27
2023-02-18T21:12:45.230Z,1.30
2023-02-18T21:15:13.260Z,1.30
2023-02-18T21:17:41.334Z,1.50
2023-02-18T21:20:11.308Z,1.70
2023-02-18T21:22:39.277Z,1.57
2023-02-18T21:25:08.424Z,1.20
2023-02-18T21:27:36.401Z,1.30
2023-02-18T21:30:05.773Z,1.20
2023-02-18T21:32:33.815Z,1.80
2023-02-18T21:35:01.777Z,1.30
2023-02-18T21:37:31.124Z,0.87
2023-02-18T21:40:00.365Z,1.13
2023-02-18T21:42:28.378Z,1.30
2023-02-18T21:44:56.414Z,1.67
2023-02-18T21:47:24.678Z,1.80
2023-02-18T21:49:52.619Z,1.40
2023-02-18T21:52:20.644Z,1.30
2023-02-18T21:54:53.315Z,1.50
2023-02-18T21:57:22.448Z,1.40
2023-02-18T21:59:50.427Z,1.53
2023-02-18T22:02:20.943Z,1.63
2023-02-18T22:04:49.776Z,1.37
2023-02-18T22:07:18.929Z,1.50
2023-02-18T22:09:48.634Z,1.47
2023-02-18T22:12:18.573Z,1.40
2023-02-18T22:14:46.702Z,1.60
2023-02-18T22:17:16.062Z,10.03
2023-02-18T22:19:44.408Z,2.70
2023-02-18T22:22:12.809Z,2.10
2023-02-18T22:24:40.783Z,1.50
2023-02-18T22:27:08.804Z,1.70
2023-02-18T22:29:38.193Z,1.50
2023-02-18T22:32:06.254Z,1.67
2023-02-18T22:34:34.410Z,1.40
2023-02-18T22:37:02.376Z,1.57
2023-02-18T22:39:30.357Z,1.40
2023-02-18T22:41:58.368Z,1.60
2023-02-18T22:44:27.297Z,1.80
2023-02-18T22:46:57.688Z,1.37
2023-02-18T22:49:26.194Z,2.03
2023-02-18T22:51:55.211Z,1.70
2023-02-18T22:54:23.411Z,1.47
2023-02-18T22:56:51.391Z,1.50
2023-02-18T22:59:20.216Z,1.57
2023-02-18T23:01:50.397Z,1.53
2023-02-18T23:04:21.422Z,1.30
2023-02-18T23:06:49.785Z,2.47
2023-02-18T23:09:19.747Z,1.27
2023-02-18T23:11:51.236Z,1.10
2023-02-18T23:14:19.542Z,1.20
2023-02-18T23:17:05.864Z,1.37
2023-02-18T23:19:36.870Z,1.33
2023-02-18T23:22:05.033Z,1.40
2023-02-18T23:24:34.176Z,0.97
2023-02-18T23:27:02.360Z,1.33
2023-02-18T23:29:30.340Z,1.47
2023-02-18T23:31:58.742Z,1.27
2023-02-18T23:34:26.690Z,1.57
2023-02-18T23:36:56.034Z,1.10
2023-02-18T23:39:24.358Z,1.03
2023-02-18T23:41:53.316Z,1.20
2023-02-18T23:44:22.857Z,1.30
2023-02-18T23:46:50.952Z,1.10
2023-02-18T23:49:22.036Z,1.23
2023-02-18T23:51:50.348Z,1.30
2023-02-18T23:54:20.061Z,1.20
2023-02-18T23:56:48.539Z,1.60
2023-02-18T23:59:16.902Z,0.93
